sensor_id;sensor_type;location;lat;lon;timestamp;P1;P2;P0
69349;PMS5003;64554;43.452;4.934;2023-02-22T00:00:53;49.00;41.80;26.00
69349;PMS5003;64554;43.452;4.934;2023-02-22T00:03:23;45.25;38.75;25.00
69349;PMS5003;64554;43.452;4.934;2023-02-22T00:05:54;47.75;40.50;26.00
69349;PMS5003;64554;43.452;4.934;2023-02-22T00:08:24;45.50;38.00;24.00
69349;PMS5003;64554;43.452;4.934;2023-02-22T00:10:50;47.50;39.75;23.25
69349;PMS5003;64554;43.452;4.934;2023-02-22T00:13:18;45.80;38.00;24.80
69349;PMS5003;64554;43.452;4.934;2023-02-22T00:15:44;50.00;42.00;26.00
69349;PMS5003;64554;43.452;4.934;2023-02-22T00:18:12;42.60;36.00;23.60
69349;PMS5003;64554;43.452;4.934;2023-02-22T00:20:38;50.00;41.80;26.00
69349;PMS5003;64554;43.452;4.934;2023-02-22T00:23:06;48.50;40.50;25.50
69349;PMS5003;64554;43.452;4.934;2023-02-22T00:25:33;48.50;40.50;24.75
69349;PMS5003;64554;43.452;4.934;2023-02-22T00:27:59;46.50;37.75;25.25
69349;PMS5003;64554;43.452;4.934;2023-02-22T00:30:27;43.75;37.75;23.50
69349;PMS5003;64554;43.452;4.934;2023-02-22T00:32:55;45.25;38.50;24.00
69349;PMS5003;64554;43.452;4.934;2023-02-22T00:35:23;44.75;36.00;22.25
69349;PMS5003;64554;43.452;4.934;2023-02-22T00:37:50;48.00;39.50;24.00
69349;PMS5003;64554;43.452;4.934;2023-02-22T00:40:19;48.60;40.40;24.80
69349;PMS5003;64554;43.452;4.934;2023-02-22T00:42:46;46.80;38.80;25.60
69349;PMS5003;64554;43.452;4.934;2023-02-22T00:45:17;47.00;40.00;24.00
69349;PMS5003;64554;43.452;4.934;2023-02-22T00:47:44;45.00;38.00;24.00
69349;PMS5003;64554;43.452;4.934;2023-02-22T00:50:10;46.75;37.50;23.50
69349;PMS5003;64554;43.452;4.934;2023-02-22T00:52:37;44.20;37.20;23.20
69349;PMS5003;64554;43.452;4.934;2023-02-22T00:55:05;40.50;35.75;23.00
69349;PMS5003;64554;43.452;4.934;2023-02-22T00:57:32;43.20;35.00;22.00
69349;PMS5003;64554;43.452;4.934;2023-02-22T01:00:03;37.00;32.00;20.00
69349;PMS5003;64554;43.452;4.934;2023-02-22T01:02:37;34.50;31.25;19.00
69349;PMS5003;64554;43.452;4.934;2023-02-22T01:05:05;29.50;28.75;18.00
69349;PMS5003;64554;43.452;4.934;2023-02-22T01:07:32;27.25;26.75;15.50
69349;PMS5003;64554;43.452;4.934;2023-02-22T01:09:59;27.00;26.00;19.00
69349;PMS5003;64554;43.452;4.934;2023-02-22T01:12:27;28.00;28.00;17.40
69349;PMS5003;64554;43.452;4.934;2023-02-22T01:14:53;28.40;25.20;17.20
69349;PMS5003;64554;43.452;4.934;2023-02-22T01:17:22;25.60;23.20;15.20
69349;PMS5003;64554;43.452;4.934;2023-02-22T01:19:49;26.80;25.20;18.00
69349;PMS5003;64554;43.452;4.934;2023-02-22T01:22:19;29.60;29.60;17.60
69349;PMS5003;64554;43.452;4.934;2023-02-22T01:24:47;33.50;31.00;18.25
69349;PMS5003;64554;43.452;4.934;2023-02-22T01:27:13;28.80;27.40;17.80
69349;PMS5003;64554;43.452;4.934;2023-02-22T01:29:40;33.40;31.60;17.20
69349;PMS5003;64554;43.452;4.934;2023-02-22T01:32:06;33.50;30.75;18.50
69349;PMS5003;64554;43.452;4.934;2023-02-22T01:34:33;29.75;28.50;17.00
69349;PMS5003;64554;43.452;4.934;2023-02-22T01:37:00;31.60;27.80;18.00
69349;PMS5003;64554;43.452;4.934;2023-02-22T01:39:29;37.00;32.00;21.25
69349;PMS5003;64554;43.452;4.934;2023-02-22T01:41:56;33.25;31.25;20.25
69349;PMS5003;64554;43.452;4.934;2023-02-22T01:46:56;33.00;30.00;22.00
69349;PMS5003;64554;43.452;4.934;2023-02-22T01:49:23;33.00;31.00;21.00
69349;PMS5003;64554;43.452;4.934;2023-02-22T01:51:51;32.25;29.75;19.75
69349;PMS5003;64554;43.452;4.934;2023-02-22T01:56:49;33.25;30.00;20.00
69349;PMS5003;64554;43.452;4.934;2023-02-22T01:59:19;37.80;32.60;20.40
69349;PMS5003;64554;43.452;4.934;2023-02-22T02:01:47;29.00;27.60;20.40
69349;PMS5003;64554;43.452;4.934;2023-02-22T02:04:18;31.67;30.00;20.00
69349;PMS5003;64554;43.452;4.934;2023-02-22T02:06:46;30.00;30.00;17.00
69349;PMS5003;64554;43.452;4.934;2023-02-22T02:09:20;31.25;29.25;19.25
69349;PMS5003;64554;43.452;4.934;2023-02-22T02:11:48;33.75;30.00;19.00
69349;PMS5003;64554;43.452;4.934;2023-02-22T02:14:15;24.00;23.40;16.00
69349;PMS5003;64554;43.452;4.934;2023-02-22T02:16:46;28.40;26.00;16.00
69349;PMS5003;64554;43.452;4.934;2023-02-22T02:19:27;27.20;25.60;16.60
69349;PMS5003;64554;43.452;4.934;2023-02-22T02:27:17;25.40;24.40;18.00
69349;PMS5003;64554;43.452;4.934;2023-02-22T02:32:34;26.40;25.20;18.00
69349;PMS5003;64554;43.452;4.934;2023-02-22T02:35:17;24.40;24.40;18.00
69349;PMS5003;64554;43.452;4.934;2023-02-22T02:42:49;31.33;30.33;19.33
69349;PMS5003;64554;43.452;4.934;2023-02-22T02:45:18;27.80;26.60;17.00
69349;PMS5003;64554;43.452;4.934;2023-02-22T02:47:48;29.00;27.80;18.00
69349;PMS5003;64554;43.452;4.934;2023-02-22T02:52:45;27.60;27.20;17.60
69349;PMS5003;64554;43.452;4.934;2023-02-22T02:55:13;32.60;28.60;18.20
69349;PMS5003;64554;43.452;4.934;2023-02-22T02:57:40;29.00;29.00;15.50
69349;PMS5003;64554;43.452;4.934;2023-02-22T03:00:07;26.00;26.00;17.00
69349;PMS5003;64554;43.452;4.934;2023-02-22T03:03:06;29.80;29.00;16.00
69349;PMS5003;64554;43.452;4.934;2023-02-22T03:08:23;25.20;25.20;17.80
69349;PMS5003;64554;43.452;4.934;2023-02-22T03:11:27;27.00;27.00;16.00
69349;PMS5003;64554;43.452;4.934;2023-02-22T03:14:05;28.80;22.00;15.00
69349;PMS5003;64554;43.452;4.934;2023-02-22T03:16:47;27.00;27.00;18.67
69349;PMS5003;64554;43.452;4.934;2023-02-22T03:19:19;25.20;24.20;13.40
69349;PMS5003;64554;43.452;4.934;2023-02-22T03:21:56;32.00;31.00;16.00
69349;PMS5003;64554;43.452;4.934;2023-02-22T03:24:28;28.00;26.25;17.00
69349;PMS5003;64554;43.452;4.934;2023-02-22T03:27:00;30.00;29.50;19.50
69349;PMS5003;64554;43.452;4.934;2023-02-22T03:29:29;30.80;28.80;17.00
69349;PMS5003;64554;43.452;4.934;2023-02-22T03:32:00;30.75;28.75;17.50
69349;PMS5003;64554;43.452;4.934;2023-02-22T03:34:33;25.60;25.60;16.40
69349;PMS5003;64554;43.452;4.934;2023-02-22T03:37:03;24.20;24.20;17.20
69349;PMS5003;64554;43.452;4.934;2023-02-22T03:39:32;26.00;26.00;18.00
69349;PMS5003;64554;43.452;4.934;2023-02-22T03:42:08;33.40;31.80;19.00
69349;PMS5003;64554;43.452;4.934;2023-02-22T03:44:37;30.00;30.00;19.00
69349;PMS5003;64554;43.452;4.934;2023-02-22T03:47:08;35.50;32.25;18.50
69349;PMS5003;64554;43.452;4.934;2023-02-22T03:49:48;30.00;27.00;18.00
69349;PMS5003;64554;43.452;4.934;2023-02-22T03:52:16;27.00;27.00;16.50
69349;PMS5003;64554;43.452;4.934;2023-02-22T03:54:43;29.00;28.40;19.00
69349;PMS5003;64554;43.452;4.934;2023-02-22T03:57:12;30.80;28.80;19.60
69349;PMS5003;64554;43.452;4.934;2023-02-22T03:59:40;32.80;31.20;20.00
69349;PMS5003;64554;43.452;4.934;2023-02-22T04:02:08;35.40;32.00;18.40
69349;PMS5003;64554;43.452;4.934;2023-02-22T04:04:34;30.50;28.00;18.25
69349;PMS5003;64554;43.452;4.934;2023-02-22T04:07:01;29.50;26.00;19.25
69349;PMS5003;64554;43.452;4.934;2023-02-22T04:09:28;33.75;31.00;19.50
69349;PMS5003;64554;43.452;4.934;2023-02-22T04:11:54;35.60;31.80;19.60
69349;PMS5003;64554;43.452;4.934;2023-02-22T04:14:20;36.60;32.60;19.60
69349;PMS5003;64554;43.452;4.934;2023-02-22T04:16:49;36.25;32.00;19.00
69349;PMS5003;64554;43.452;4.934;2023-02-22T04:19:15;35.00;32.80;20.40
69349;PMS5003;64554;43.452;4.934;2023-02-22T04:21:42;30.60;29.60;19.00
69349;PMS5003;64554;43.452;4.934;2023-02-22T04:24:08;32.50;29.75;17.25
69349;PMS5003;64554;43.452;4.934;2023-02-22T04:26:35;34.00;31.00;18.00
69349;PMS5003;64554;43.452;4.934;2023-02-22T04:29:01;35.50;32.00;20.00
69349;PMS5003;64554;43.452;4.934;2023-02-22T04:31:29;34.40;30.40;19.00
69349;PMS5003;64554;43.452;4.934;2023-02-22T04:33:56;31.80;29.60;18.20
69349;PMS5003;64554;43.452;4.934;2023-02-22T04:36:22;31.20;29.80;17.00
69349;PMS5003;64554;43.452;4.934;2023-02-22T04:38:49;29.33;27.67;18.67
69349;PMS5003;64554;43.452;4.934;2023-02-22T04:41:16;25.80;23.80;16.20
69349;PMS5003;64554;43.452;4.934;2023-02-22T04:43:44;28.60;25.60;17.00
69349;PMS5003;64554;43.452;4.934;2023-02-22T04:46:11;24.50;24.50;15.75
69349;PMS5003;64554;43.452;4.934;2023-02-22T04:48:37;30.60;27.60;16.60
69349;PMS5003;64554;43.452;4.934;2023-02-22T04:51:04;27.00;26.00;16.00
69349;PMS5003;64554;43.452;4.934;2023-02-22T04:53:31;26.00;25.67;17.00
69349;PMS5003;64554;43.452;4.934;2023-02-22T04:55:58;23.00;22.00;17.00
69349;PMS5003;64554;43.452;4.934;2023-02-22T04:58:24;27.60;27.40;16.00
69349;PMS5003;64554;43.452;4.934;2023-02-22T05:00:50;29.00;26.00;16.00
69349;PMS5003;64554;43.452;4.934;2023-02-22T05:03:18;26.00;26.00;15.40
69349;PMS5003;64554;43.452;4.934;2023-02-22T05:05:44;23.50;22.00;15.00
69349;PMS5003;64554;43.452;4.934;2023-02-22T05:08:12;28.40;25.60;16.00
69349;PMS5003;64554;43.452;4.934;2023-02-22T05:10:38;26.60;25.40;17.00
69349;PMS5003;64554;43.452;4.934;2023-02-22T05:13:05;28.00;27.25;20.00
69349;PMS5003;64554;43.452;4.934;2023-02-22T05:15:31;28.00;26.25;18.75
69349;PMS5003;64554;43.452;4.934;2023-02-22T05:17:58;27.00;26.00;17.00
69349;PMS5003;64554;43.452;4.934;2023-02-22T05:20:26;25.50;25.50;16.00
69349;PMS5003;64554;43.452;4.934;2023-02-22T05:22:53;30.50;29.75;18.75
69349;PMS5003;64554;43.452;4.934;2023-02-22T05:25:20;33.80;30.80;20.00
69349;PMS5003;64554;43.452;4.934;2023-02-22T05:27:50;31.00;28.60;18.60
69349;PMS5003;64554;43.452;4.934;2023-02-22T05:30:17;33.20;30.00;18.00
69349;PMS5003;64554;43.452;4.934;2023-02-22T05:32:44;27.00;26.00;17.50
69349;PMS5003;64554;43.452;4.934;2023-02-22T05:35:12;30.50;29.25;20.00
69349;PMS5003;64554;43.452;4.934;2023-02-22T05:37:38;28.75;28.50;17.50
69349;PMS5003;64554;43.452;4.934;2023-02-22T05:40:05;28.50;27.25;20.00
69349;PMS5003;64554;43.452;4.934;2023-02-22T05:42:33;28.40;28.40;19.00
69349;PMS5003;64554;43.452;4.934;2023-02-22T05:44:59;35.25;31.50;19.50
69349;PMS5003;64554;43.452;4.934;2023-02-22T05:47:26;32.50;31.50;19.00
69349;PMS5003;64554;43.452;4.934;2023-02-22T05:49:52;27.00;27.00;16.50
69349;PMS5003;64554;43.452;4.934;2023-02-22T05:52:19;33.75;31.75;18.25
69349;PMS5003;64554;43.452;4.934;2023-02-22T05:54:46;23.00;21.60;14.60
69349;PMS5003;64554;43.452;4.934;2023-02-22T05:57:12;31.80;29.60;17.00
69349;PMS5003;64554;43.452;4.934;2023-02-22T05:59:39;31.33;30.00;17.00
69349;PMS5003;64554;43.452;4.934;2023-02-22T06:02:06;21.60;21.60;14.80
69349;PMS5003;64554;43.452;4.934;2023-02-22T06:04:33;30.25;29.50;16.50
69349;PMS5003;64554;43.452;4.934;2023-02-22T06:07:00;23.00;23.00;17.00
69349;PMS5003;64554;43.452;4.934;2023-02-22T06:09:26;32.75;30.00;17.25
69349;PMS5003;64554;43.452;4.934;2023-02-22T06:11:53;26.25;23.75;18.00
69349;PMS5003;64554;43.452;4.934;2023-02-22T06:14:20;32.80;30.80;20.00
69349;PMS5003;64554;43.452;4.934;2023-02-22T06:16:53;26.00;23.00;16.60
69349;PMS5003;64554;43.452;4.934;2023-02-22T06:19:19;22.20;22.00;16.40
69349;PMS5003;64554;43.452;4.934;2023-02-22T06:21:53;29.75;28.50;17.25
69349;PMS5003;64554;43.452;4.934;2023-02-22T06:24:20;31.00;28.40;17.00
69349;PMS5003;64554;43.452;4.934;2023-02-22T06:26:57;29.67;29.00;18.00
69349;PMS5003;64554;43.452;4.934;2023-02-22T06:29:24;33.40;30.00;17.40
69349;PMS5003;64554;43.452;4.934;2023-02-22T06:31:51;25.40;25.40;18.60
69349;PMS5003;64554;43.452;4.934;2023-02-22T06:34:18;30.50;29.75;16.00
69349;PMS5003;64554;43.452;4.934;2023-02-22T06:36:45;26.20;24.40;17.40
69349;PMS5003;64554;43.452;4.934;2023-02-22T06:39:13;27.00;26.00;14.00
69349;PMS5003;64554;43.452;4.934;2023-02-22T06:41:45;27.00;26.50;15.50
69349;PMS5003;64554;43.452;4.934;2023-02-22T06:44:13;28.50;25.50;15.50
69349;PMS5003;64554;43.452;4.934;2023-02-22T06:46:39;26.40;25.40;15.00
69349;PMS5003;64554;43.452;4.934;2023-02-22T06:49:12;20.75;19.25;13.75
69349;PMS5003;64554;43.452;4.934;2023-02-22T06:51:38;22.50;21.75;15.50
69349;PMS5003;64554;43.452;4.934;2023-02-22T06:54:05;27.00;27.00;15.20
69349;PMS5003;64554;43.452;4.934;2023-02-22T06:56:31;28.00;27.00;18.50
69349;PMS5003;64554;43.452;4.934;2023-02-22T06:58:58;34.00;31.60;18.00
69349;PMS5003;64554;43.452;4.934;2023-02-22T07:01:27;34.75;31.50;17.50
69349;PMS5003;64554;43.452;4.934;2023-02-22T07:03:54;26.50;26.50;15.25
69349;PMS5003;64554;43.452;4.934;2023-02-22T07:06:22;26.00;25.00;15.50
69349;PMS5003;64554;43.452;4.934;2023-02-22T07:08:48;23.40;21.40;16.00
69349;PMS5003;64554;43.452;4.934;2023-02-22T07:11:15;23.50;21.00;13.50
69349;PMS5003;64554;43.452;4.934;2023-02-22T07:13:42;22.75;21.75;15.75
69349;PMS5003;64554;43.452;4.934;2023-02-22T07:16:09;23.25;23.25;16.00
69349;PMS5003;64554;43.452;4.934;2023-02-22T07:18:36;18.40;17.60;12.60
69349;PMS5003;64554;43.452;4.934;2023-02-22T07:21:02;21.20;21.00;15.20
69349;PMS5003;64554;43.452;4.934;2023-02-22T07:23:29;25.50;25.50;14.00
69349;PMS5003;64554;43.452;4.934;2023-02-22T07:25:58;21.60;21.20;14.60
69349;PMS5003;64554;43.452;4.934;2023-02-22T07:28:25;20.75;18.75;13.00
69349;PMS5003;64554;43.452;4.934;2023-02-22T07:30:51;24.00;23.00;13.00
69349;PMS5003;64554;43.452;4.934;2023-02-22T07:33:18;22.00;22.00;15.00
69349;PMS5003;64554;43.452;4.934;2023-02-22T07:35:45;28.20;28.20;16.00
69349;PMS5003;64554;43.452;4.934;2023-02-22T07:38:12;23.40;22.00;15.40
69349;PMS5003;64554;43.452;4.934;2023-02-22T07:40:39;26.00;25.00;15.00
69349;PMS5003;64554;43.452;4.934;2023-02-22T07:43:16;26.40;26.40;14.60
69349;PMS5003;64554;43.452;4.934;2023-02-22T07:45:44;21.80;19.80;13.80
69349;PMS5003;64554;43.452;4.934;2023-02-22T07:48:11;24.25;24.25;15.50
69349;PMS5003;64554;43.452;4.934;2023-02-22T07:50:37;21.00;20.00;13.00
69349;PMS5003;64554;43.452;4.934;2023-02-22T07:53:05;20.50;19.00;12.75
69349;PMS5003;64554;43.452;4.934;2023-02-22T07:55:33;23.80;21.00;13.80
69349;PMS5003;64554;43.452;4.934;2023-02-22T07:58:01;20.40;19.40;13.00
69349;PMS5003;64554;43.452;4.934;2023-02-22T08:00:31;29.20;26.40;14.40
69349;PMS5003;64554;43.452;4.934;2023-02-22T08:02:59;20.50;19.50;14.00
69349;PMS5003;64554;43.452;4.934;2023-02-22T08:05:26;26.75;26.75;16.00
69349;PMS5003;64554;43.452;4.934;2023-02-22T08:07:53;87.00;75.75;41.00
69349;PMS5003;64554;43.452;4.934;2023-02-22T08:10:20;74.80;66.40;39.80
69349;PMS5003;64554;43.452;4.934;2023-02-22T08:12:47;62.00;50.20;33.80
69349;PMS5003;64554;43.452;4.934;2023-02-22T08:15:16;40.75;36.00;22.75
69349;PMS5003;64554;43.452;4.934;2023-02-22T08:17:43;50.33;43.33;27.33
69349;PMS5003;64554;43.452;4.934;2023-02-22T08:20:10;26.60;26.60;19.20
69349;PMS5003;64554;43.452;4.934;2023-02-22T08:22:36;46.40;39.40;24.40
69349;PMS5003;64554;43.452;4.934;2023-02-22T08:25:03;42.25;36.50;26.00
69349;PMS5003;64554;43.452;4.934;2023-02-22T08:27:30;45.50;38.25;26.50
69349;PMS5003;64554;43.452;4.934;2023-02-22T08:29:56;35.00;33.00;21.40
69349;PMS5003;64554;43.452;4.934;2023-02-22T08:32:23;46.00;39.00;26.50
69349;PMS5003;64554;43.452;4.934;2023-02-22T08:34:50;43.00;37.00;26.00
69349;PMS5003;64554;43.452;4.934;2023-02-22T08:37:17;29.00;28.50;15.50
69349;PMS5003;64554;43.452;4.934;2023-02-22T08:39:43;22.80;22.80;15.40
69349;PMS5003;64554;43.452;4.934;2023-02-22T08:42:10;22.40;21.40;15.40
69349;PMS5003;64554;43.452;4.934;2023-02-22T08:44:37;27.00;27.00;19.20
69349;PMS5003;64554;43.452;4.934;2023-02-22T08:47:04;21.25;19.75;15.25
69349;PMS5003;64554;43.452;4.934;2023-02-22T08:49:31;26.50;26.50;15.50
69349;PMS5003;64554;43.452;4.934;2023-02-22T08:51:58;23.50;21.50;15.00
69349;PMS5003;64554;43.452;4.934;2023-02-22T08:54:24;21.25;20.25;14.75
69349;PMS5003;64554;43.452;4.934;2023-02-22T08:56:51;29.20;27.40;15.60
69349;PMS5003;64554;43.452;4.934;2023-02-22T08:59:17;24.00;23.00;14.75
69349;PMS5003;64554;43.452;4.934;2023-02-22T09:01:44;19.40;19.40;13.60
69349;PMS5003;64554;43.452;4.934;2023-02-22T09:04:10;18.00;17.00;12.40
69349;PMS5003;64554;43.452;4.934;2023-02-22T09:06:39;15.25;15.25;11.00
69349;PMS5003;64554;43.452;4.934;2023-02-22T09:09:05;15.50;15.50;12.25
69349;PMS5003;64554;43.452;4.934;2023-02-22T09:11:32;17.80;17.80;12.60
69349;PMS5003;64554;43.452;4.934;2023-02-22T09:13:59;19.50;18.00;11.50
69349;PMS5003;64554;43.452;4.934;2023-02-22T09:16:25;15.00;15.00;11.00
69349;PMS5003;64554;43.452;4.934;2023-02-22T09:18:52;21.00;20.00;12.00
69349;PMS5003;64554;43.452;4.934;2023-02-22T09:21:18;16.25;16.25;12.00
69349;PMS5003;64554;43.452;4.934;2023-02-22T09:23:45;20.50;16.00;12.50
69349;PMS5003;64554;43.452;4.934;2023-02-22T09:26:12;17.40;17.40;11.00
69349;PMS5003;64554;43.452;4.934;2023-02-22T09:28:41;16.00;16.00;12.00
69349;PMS5003;64554;43.452;4.934;2023-02-22T09:31:07;16.00;15.00;11.50
69349;PMS5003;64554;43.452;4.934;2023-02-22T09:33:34;20.25;20.00;12.00
69349;PMS5003;64554;43.452;4.934;2023-02-22T09:36:01;20.00;19.60;9.20
69349;PMS5003;64554;43.452;4.934;2023-02-22T09:38:27;14.00;12.40;9.00
69349;PMS5003;64554;43.452;4.934;2023-02-22T09:43:42;17.50;16.50;10.75
69349;PMS5003;64554;43.452;4.934;2023-02-22T09:48:43;26.40;25.40;14.40
69349;PMS5003;64554;43.452;4.934;2023-02-22T09:51:15;21.75;21.75;12.25
69349;PMS5003;64554;43.452;4.934;2023-02-22T09:53:44;15.20;14.00;10.00
69349;PMS5003;64554;43.452;4.934;2023-02-22T09:56:13;18.40;17.40;12.00
69349;PMS5003;64554;43.452;4.934;2023-02-22T09:58:49;14.50;14.50;10.50
69349;PMS5003;64554;43.452;4.934;2023-02-22T10:01:21;18.60;18.60;13.00
69349;PMS5003;64554;43.452;4.934;2023-02-22T10:06:16;15.00;15.00;9.50
69349;PMS5003;64554;43.452;4.934;2023-02-22T10:08:46;14.20;12.80;10.20
69349;PMS5003;64554;43.452;4.934;2023-02-22T10:13:51;14.00;14.00;9.00
69349;PMS5003;64554;43.452;4.934;2023-02-22T10:16:22;14.50;12.50;8.50
69349;PMS5003;64554;43.452;4.934;2023-02-22T10:21:38;12.20;12.20;7.80
69349;PMS5003;64554;43.452;4.934;2023-02-22T10:24:20;11.75;11.75;9.00
69349;PMS5003;64554;43.452;4.934;2023-02-22T10:26:52;15.00;14.00;9.00
69349;PMS5003;64554;43.452;4.934;2023-02-22T10:31:56;12.00;12.00;9.00
69349;PMS5003;64554;43.452;4.934;2023-02-22T10:34:24;14.40;14.40;9.00
69349;PMS5003;64554;43.452;4.934;2023-02-22T10:36:56;13.40;13.40;10.00
69349;PMS5003;64554;43.452;4.934;2023-02-22T10:39:34;14.75;12.75;9.75
69349;PMS5003;64554;43.452;4.934;2023-02-22T10:42:02;13.00;13.00;10.00
69349;PMS5003;64554;43.452;4.934;2023-02-22T10:44:32;15.00;12.25;8.00
69349;PMS5003;64554;43.452;4.934;2023-02-22T10:46:59;12.50;11.00;7.00
69349;PMS5003;64554;43.452;4.934;2023-02-22T10:49:27;17.00;14.00;8.00
69349;PMS5003;64554;43.452;4.934;2023-02-22T10:51:58;11.20;11.20;8.00
69349;PMS5003;64554;43.452;4.934;2023-02-22T10:54:27;15.00;15.00;9.60
69349;PMS5003;64554;43.452;4.934;2023-02-22T10:56:56;12.60;12.60;10.00
69349;PMS5003;64554;43.452;4.934;2023-02-22T10:59:26;15.00;14.00;10.00
69349;PMS5003;64554;43.452;4.934;2023-02-22T11:01:54;12.60;12.40;9.00
69349;PMS5003;64554;43.452;4.934;2023-02-22T11:04:21;13.40;11.00;8.00
69349;PMS5003;64554;43.452;4.934;2023-02-22T11:06:48;11.00;11.00;8.00
69349;PMS5003;64554;43.452;4.934;2023-02-22T11:09:41;13.40;13.40;8.00
69349;PMS5003;64554;43.452;4.934;2023-02-22T11:12:14;15.60;13.60;10.00
69349;PMS5003;64554;43.452;4.934;2023-02-22T11:14:42;15.50;12.50;8.50
69349;PMS5003;64554;43.452;4.934;2023-02-22T11:17:08;13.60;13.00;10.00
69349;PMS5003;64554;43.452;4.934;2023-02-22T11:19:38;18.00;17.00;8.00
69349;PMS5003;64554;43.452;4.934;2023-02-22T11:22:11;13.00;13.00;9.00
69349;PMS5003;64554;43.452;4.934;2023-02-22T11:24:45;15.00;14.00;8.00
69349;PMS5003;64554;43.452;4.934;2023-02-22T11:27:36;13.60;13.40;8.40
69349;PMS5003;64554;43.452;4.934;2023-02-22T11:30:09;18.60;17.60;9.80
69349;PMS5003;64554;43.452;4.934;2023-02-22T11:32:42;13.60;13.60;9.00
69349;PMS5003;64554;43.452;4.934;2023-02-22T11:38:10;12.50;12.50;8.00
69349;PMS5003;64554;43.452;4.934;2023-02-22T11:40:37;12.00;12.00;9.00
69349;PMS5003;64554;43.452;4.934;2023-02-22T11:43:06;16.00;15.20;9.80
69349;PMS5003;64554;43.452;4.934;2023-02-22T11:45:36;15.00;15.00;9.25
69349;PMS5003;64554;43.452;4.934;2023-02-22T11:48:17;14.40;13.00;9.00
69349;PMS5003;64554;43.452;4.934;2023-02-22T11:53:43;13.80;13.80;10.00
69349;PMS5003;64554;43.452;4.934;2023-02-22T11:56:15;11.50;11.50;9.00
69349;PMS5003;64554;43.452;4.934;2023-02-22T12:01:42;10.00;10.00;7.50
69349;PMS5003;64554;43.452;4.934;2023-02-22T12:06:46;16.50;13.00;9.75
69349;PMS5003;64554;43.452;4.934;2023-02-22T12:09:18;16.00;16.00;12.00
69349;PMS5003;64554;43.452;4.934;2023-02-22T12:12:06;15.40;13.40;9.00
69349;PMS5003;64554;43.452;4.934;2023-02-22T12:14:39;15.00;13.50;10.00
69349;PMS5003;64554;43.452;4.934;2023-02-22T12:19:36;14.00;13.00;10.00
69349;PMS5003;64554;43.452;4.934;2023-02-22T12:22:06;15.00;13.00;9.00
69349;PMS5003;64554;43.452;4.934;2023-02-22T12:24:48;13.00;13.00;10.00
69349;PMS5003;64554;43.452;4.934;2023-02-22T12:27:34;15.00;13.00;9.50
69349;PMS5003;64554;43.452;4.934;2023-02-22T12:30:04;17.00;14.75;10.00
69349;PMS5003;64554;43.452;4.934;2023-02-22T12:35:08;17.00;12.50;9.00
69349;PMS5003;64554;43.452;4.934;2023-02-22T12:37:47;16.00;15.80;8.20
69349;PMS5003;64554;43.452;4.934;2023-02-22T12:45:49;19.00;16.75;10.00
69349;PMS5003;64554;43.452;4.934;2023-02-22T12:50:45;19.50;17.25;9.75
69349;PMS5003;64554;43.452;4.934;2023-02-22T12:53:16;16.00;15.50;10.00
69349;PMS5003;64554;43.452;4.934;2023-02-22T12:55:46;15.00;14.00;8.40
69349;PMS5003;64554;43.452;4.934;2023-02-22T13:00:43;16.33;12.33;9.00
69349;PMS5003;64554;43.452;4.934;2023-02-22T13:08:57;13.60;13.60;10.40
69349;PMS5003;64554;43.452;4.934;2023-02-22T13:21:54;10.00;10.00;7.25
69349;PMS5003;64554;43.452;4.934;2023-02-22T13:27:26;13.75;13.75;10.00
69349;PMS5003;64554;43.452;4.934;2023-02-22T13:29:58;13.00;12.00;8.00
69349;PMS5003;64554;43.452;4.934;2023-02-22T13:32:30;14.00;14.00;9.00
69349;PMS5003;64554;43.452;4.934;2023-02-22T13:37:38;11.60;11.60;8.60
69349;PMS5003;64554;43.452;4.934;2023-02-22T13:43:32;15.00;13.00;9.40
69349;PMS5003;64554;43.452;4.934;2023-02-22T13:45:51;11.50;10.50;9.00
69349;PMS5003;64554;43.452;4.934;2023-02-22T13:53:38;11.20;11.20;7.80
69349;PMS5003;64554;43.452;4.934;2023-02-22T13:56:08;13.00;12.00;9.00
69349;PMS5003;64554;43.452;4.934;2023-02-22T13:58:58;12.20;10.20;6.80
69349;PMS5003;64554;43.452;4.934;2023-02-22T14:06:49;11.00;9.00;7.00
69349;PMS5003;64554;43.452;4.934;2023-02-22T14:09:40;13.50;13.25;7.00
69349;PMS5003;64554;43.452;4.934;2023-02-22T14:12:03;15.00;15.00;8.00
69349;PMS5003;64554;43.452;4.934;2023-02-22T14:14:29;10.50;10.50;8.00
69349;PMS5003;64554;43.452;4.934;2023-02-22T14:17:14;18.75;17.75;10.75
69349;PMS5003;64554;43.452;4.934;2023-02-22T14:19:41;13.00;13.00;10.60
69349;PMS5003;64554;43.452;4.934;2023-02-22T14:22:07;13.00;12.00;8.75
69349;PMS5003;64554;43.452;4.934;2023-02-22T14:24:42;15.50;14.25;10.50
69349;PMS5003;64554;43.452;4.934;2023-02-22T14:27:09;14.00;14.00;9.40
69349;PMS5003;64554;43.452;4.934;2023-02-22T14:29:36;14.40;13.40;9.40
69349;PMS5003;64554;43.452;4.934;2023-02-22T14:32:04;16.00;13.20;10.00
69349;PMS5003;64554;43.452;4.934;2023-02-22T14:34:45;15.00;15.00;11.00
69349;PMS5003;64554;43.452;4.934;2023-02-22T14:51:13;13.60;12.60;9.60
69349;PMS5003;64554;43.452;4.934;2023-02-22T14:55:50;13.00;13.00;7.80
69349;PMS5003;64554;43.452;4.934;2023-02-22T14:58:19;14.75;14.25;9.75
69349;PMS5003;64554;43.452;4.934;2023-02-22T15:00:49;15.50;13.50;10.00
69349;PMS5003;64554;43.452;4.934;2023-02-22T15:03:28;16.40;14.00;11.00
69349;PMS5003;64554;43.452;4.934;2023-02-22T15:08:33;15.40;13.40;8.60
69349;PMS5003;64554;43.452;4.934;2023-02-22T15:11:00;15.40;14.00;9.40
69349;PMS5003;64554;43.452;4.934;2023-02-22T15:13:28;15.00;15.00;11.25
69349;PMS5003;64554;43.452;4.934;2023-02-22T15:15:59;23.00;21.00;11.00
69349;PMS5003;64554;43.452;4.934;2023-02-22T15:18:38;20.40;19.60;10.40
69349;PMS5003;64554;43.452;4.934;2023-02-22T15:21:07;17.00;16.00;10.50
69349;PMS5003;64554;43.452;4.934;2023-02-22T15:23:45;16.00;15.00;10.60
69349;PMS5003;64554;43.452;4.934;2023-02-22T15:28:42;17.80;16.80;10.40
69349;PMS5003;64554;43.452;4.934;2023-02-22T15:31:16;22.25;21.25;11.00
69349;PMS5003;64554;43.452;4.934;2023-02-22T15:33:43;15.50;15.50;10.50
69349;PMS5003;64554;43.452;4.934;2023-02-22T15:36:14;17.00;15.00;9.60
69349;PMS5003;64554;43.452;4.934;2023-02-22T15:38:45;21.50;18.00;11.00
69349;PMS5003;64554;43.452;4.934;2023-02-22T15:41:18;12.25;11.25;8.50
69349;PMS5003;64554;43.452;4.934;2023-02-22T15:43:55;14.00;12.00;8.00
69349;PMS5003;64554;43.452;4.934;2023-02-22T15:46:22;12.25;9.25;7.25
69349;PMS5003;64554;43.452;4.934;2023-02-22T15:49:02;14.00;14.00;7.50
69349;PMS5003;64554;43.452;4.934;2023-02-22T15:51:29;13.00;13.00;10.00
69349;PMS5003;64554;43.452;4.934;2023-02-22T15:53:58;16.00;14.60;7.00
69349;PMS5003;64554;43.452;4.934;2023-02-22T15:56:27;11.00;11.00;8.25
69349;PMS5003;64554;43.452;4.934;2023-02-22T15:59:18;11.50;11.50;8.00
69349;PMS5003;64554;43.452;4.934;2023-02-22T16:01:45;11.00;11.00;8.00
69349;PMS5003;64554;43.452;4.934;2023-02-22T16:04:28;10.00;10.00;7.75